createdAt,value
2018-09-13T00:00:07.328Z,1016.56
2018-09-13T00:01:07.298Z,1016.56
2018-09-13T00:02:07.269Z,1016.54
2018-09-13T00:03:07.264Z,1016.53
2018-09-13T00:04:07.212Z,1016.54
2018-09-13T00:05:07.180Z,1016.52
2018-09-13T00:06:07.151Z,1016.51
2018-09-13T00:07:07.126Z,1016.49
2018-09-13T00:08:07.089Z,1016.51
2018-09-13T00:09:07.068Z,1016.46
2018-09-13T00:10:07.028Z,1016.45
2018-09-13T00:11:06.998Z,1016.45
2018-09-13T00:12:06.968Z,1016.48
2018-09-13T00:13:06.938Z,1016.44
2018-09-13T00:14:06.917Z,1016.41
2018-09-13T00:15:06.878Z,1016.39
2018-09-13T00:16:06.846Z,1016.39
2018-09-13T00:17:06.816Z,1016.42
2018-09-13T00:18:06.792Z,1016.42
2018-09-13T00:19:06.764Z,1016.42
2018-09-13T00:20:06.730Z,1016.43
2018-09-13T00:21:06.701Z,1016.42
2018-09-13T00:22:06.672Z,1016.42
2018-09-13T00:23:06.638Z,1016.45
2018-09-13T00:24:06.620Z,1016.51
2018-09-13T00:25:06.576Z,1016.49
2018-09-13T00:26:06.548Z,1016.48
2018-09-13T00:27:06.520Z,1016.45
2018-09-13T00:28:06.488Z,1016.47
2018-09-13T00:29:06.465Z,1016.45
2018-09-13T00:30:06.426Z,1016.44
2018-09-13T00:31:06.396Z,1016.39
2018-09-13T00:32:06.366Z,1016.37
2018-09-13T00:33:06.337Z,1016.38
2018-09-13T00:34:06.314Z,1016.39
2018-09-13T00:35:06.278Z,1016.39
2018-09-13T00:36:06.244Z,1016.38
2018-09-13T00:37:06.215Z,1016.43
2018-09-13T00:38:06.186Z,1016.40
2018-09-13T00:39:06.174Z,1016.37
2018-09-13T00:40:06.131Z,1016.35
2018-09-13T00:41:06.094Z,1016.35
2018-09-13T00:42:06.066Z,1016.29
2018-09-13T00:43:06.038Z,1016.25
2018-09-13T00:44:06.004Z,1016.20
2018-09-13T00:45:05.983Z,1016.20
2018-09-13T00:46:05.948Z,1016.16
2018-09-13T00:47:05.916Z,1016.16
2018-09-13T00:48:05.883Z,1016.14
2018-09-13T00:49:05.856Z,1016.12
2018-09-13T00:50:05.835Z,1016.10
2018-09-13T00:51:05.792Z,1016.07
2018-09-13T00:52:05.763Z,1016.08
2018-09-13T00:53:05.732Z,1016.09
2018-09-13T00:54:05.704Z,1016.10
2018-09-13T00:55:05.681Z,1016.09
2018-09-13T00:56:05.644Z,1016.10
2018-09-13T00:57:05.609Z,1016.09
2018-09-13T00:58:05.582Z,1016.09
2018-09-13T00:59:05.611Z,1016.05
2018-09-13T01:00:05.527Z,1016.02
2018-09-13T01:01:05.488Z,1016.04
2018-09-13T01:02:05.457Z,1016.06
2018-09-13T01:03:05.430Z,1016.03
2018-09-13T01:04:05.396Z,1016.08
2018-09-13T01:05:05.379Z,1016.10
2018-09-13T01:06:05.348Z,1016.12
2018-09-13T01:07:05.312Z,1016.17
2018-09-13T01:08:05.278Z,1016.18
2018-09-13T01:09:05.250Z,1016.17
2018-09-13T01:10:05.223Z,1016.20
2018-09-13T01:11:05.188Z,1016.21
2018-09-13T01:12:05.153Z,1016.18
2018-09-13T01:13:05.129Z,1016.19
2018-09-13T01:14:05.094Z,1016.18
2018-09-13T01:15:05.078Z,1016.14
2018-09-13T01:16:05.032Z,1016.17
2018-09-13T01:17:05.008Z,1016.19
2018-09-13T01:18:04.974Z,1016.20
2018-09-13T01:19:04.953Z,1016.19
2018-09-13T01:20:04.911Z,1016.15
2018-09-13T01:21:04.893Z,1016.12
2018-09-13T01:22:04.853Z,1016.16
2018-09-13T01:23:04.822Z,1016.16
2018-09-13T01:24:04.790Z,1016.14
2018-09-13T01:25:04.761Z,1016.12
2018-09-13T01:26:04.738Z,1016.12
2018-09-13T01:27:04.699Z,1016.11
2018-09-13T01:28:04.668Z,1016.14
2018-09-13T01:29:04.640Z,1016.12
2018-09-13T01:30:04.608Z,1016.13
2018-09-13T01:31:04.591Z,1016.16
2018-09-13T01:32:04.548Z,1016.12
2018-09-13T01:33:04.518Z,1016.10
2018-09-13T01:34:04.487Z,1016.10
2018-09-13T01:35:04.458Z,1016.08
2018-09-13T01:36:04.437Z,1016.07
2018-09-13T01:37:04.396Z,1016.10
2018-09-13T01:38:04.372Z,1016.06
2018-09-13T01:39:04.341Z,1016.06
2018-09-13T01:40:04.440Z,1016.04
2018-09-13T01:41:04.283Z,1016.08
2018-09-13T01:42:04.244Z,1016.09
2018-09-13T01:43:04.215Z,1016.09
2018-09-13T01:44:04.186Z,1016.13
2018-09-13T01:45:04.151Z,1016.07
2018-09-13T01:46:04.131Z,1016.06
2018-09-13T01:47:04.093Z,1016.09
2018-09-13T01:48:04.062Z,1016.04
2018-09-13T01:49:04.034Z,1016.01
2018-09-13T01:50:04.008Z,1016.01
2018-09-13T01:51:03.978Z,1016.03
2018-09-13T01:52:03.953Z,1016.00
2018-09-13T01:53:03.907Z,1016.00
2018-09-13T01:54:03.881Z,1015.95
2018-09-13T01:55:03.856Z,1015.93
2018-09-13T01:56:03.823Z,1015.93
2018-09-13T01:57:03.798Z,1015.90
2018-09-13T01:58:03.758Z,1015.93
2018-09-13T01:59:03.729Z,1015.91
2018-09-13T02:00:03.702Z,1015.91
2018-09-13T02:01:03.666Z,1015.89
2018-09-13T02:02:03.643Z,1015.88
2018-09-13T02:03:03.606Z,1015.86
2018-09-13T02:04:03.585Z,1015.88
2018-09-13T02:05:03.546Z,1015.87
2018-09-13T02:06:03.515Z,1015.85
2018-09-13T02:07:03.493Z,1015.86
2018-09-13T02:08:03.452Z,1015.84
2018-09-13T02:09:03.424Z,1015.80
2018-09-13T02:10:03.396Z,1015.80
2018-09-13T02:11:03.361Z,1015.81
2018-09-13T02:12:03.340Z,1015.77
2018-09-13T02:13:03.302Z,1015.75
2018-09-13T02:14:03.292Z,1015.75
2018-09-13T02:15:03.247Z,1015.77
2018-09-13T02:16:03.212Z,1015.82
2018-09-13T02:17:03.191Z,1015.81
2018-09-13T02:18:03.152Z,1015.79
2018-09-13T02:19:03.120Z,1015.81
2018-09-13T02:20:03.091Z,1015.78
2018-09-13T02:21:03.062Z,1015.75
2018-09-13T02:22:03.597Z,1015.73
2018-09-13T02:23:03.000Z,1015.68
2018-09-13T02:24:02.966Z,1015.72
2018-09-13T02:25:02.937Z,1015.72
2018-09-13T02:26:02.908Z,1015.72
2018-09-13T02:27:02.875Z,1015.73
2018-09-13T02:28:02.863Z,1015.74
2018-09-13T02:29:02.811Z,1015.73
2018-09-13T02:30:02.787Z,1015.76
2018-09-13T02:31:02.758Z,1015.72
2018-09-13T02:32:02.724Z,1015.71
2018-09-13T02:33:02.702Z,1015.72
2018-09-13T02:34:02.662Z,1015.68
2018-09-13T02:35:02.634Z,1015.62
2018-09-13T02:36:02.604Z,1015.66
2018-09-13T02:37:02.570Z,1015.66
2018-09-13T02:38:02.549Z,1015.66
2018-09-13T02:39:02.508Z,1015.69
2018-09-13T02:40:02.482Z,1015.64
2018-09-13T02:41:02.448Z,1015.60
2018-09-13T02:42:02.417Z,1015.58
2018-09-13T02:43:02.397Z,1015.65
2018-09-13T02:44:02.360Z,1015.59
2018-09-13T02:45:02.333Z,1015.63
2018-09-13T02:46:02.296Z,1015.64
2018-09-13T02:47:02.275Z,1015.67
2018-09-13T02:48:02.246Z,1015.65
2018-09-13T02:49:02.242Z,1015.72
2018-09-13T02:50:02.176Z,1015.68
2018-09-13T02:51:02.151Z,1015.65
2018-09-13T02:52:02.113Z,1015.59
2018-09-13T02:53:02.094Z,1015.56
2018-09-13T02:54:02.054Z,1015.51
2018-09-13T02:55:02.023Z,1015.50
2018-09-13T02:56:01.991Z,1015.50
2018-09-13T02:57:01.962Z,1015.51
2018-09-13T02:58:01.949Z,1015.51
2018-09-13T02:59:01.900Z,1015.53
2018-09-13T03:00:01.875Z,1015.56
2018-09-13T03:01:01.837Z,1015.56
2018-09-13T03:02:01.807Z,1015.52
2018-09-13T03:03:01.776Z,1015.56
2018-09-13T03:04:01.758Z,1015.53
2018-09-13T03:05:01.717Z,1015.53
2018-09-13T03:06:01.688Z,1015.48
2018-09-13T03:07:01.656Z,1015.49
2018-09-13T03:08:01.625Z,1015.50
2018-09-13T03:09:01.607Z,1015.49
2018-09-13T03:10:01.564Z,1015.45
2018-09-13T03:11:01.535Z,1015.48
2018-09-13T03:12:01.504Z,1015.45
2018-09-13T03:13:01.475Z,1015.44
2018-09-13T03:14:01.449Z,1015.42
2018-09-13T03:15:01.412Z,1015.42
2018-09-13T03:16:01.384Z,1015.44
2018-09-13T03:17:01.348Z,1015.45
2018-09-13T03:18:01.324Z,1015.48
2018-09-13T03:19:01.295Z,1015.47
2018-09-13T03:20:01.255Z,1015.48
2018-09-13T03:21:01.234Z,1015.48
2018-09-13T03:22:01.197Z,1015.43
2018-09-13T03:23:01.221Z,1015.43
2018-09-13T03:24:01.142Z,1015.48
2018-09-13T03:25:01.104Z,1015.48
2018-09-13T03:26:01.071Z,1015.47
2018-09-13T03:27:01.043Z,1015.49
2018-09-13T03:28:01.013Z,1015.50
2018-09-13T03:29:00.992Z,1015.52
2018-09-13T03:30:00.949Z,1015.51
2018-09-13T03:31:00.920Z,1015.51
2018-09-13T03:32:00.894Z,1015.49
2018-09-13T03:33:00.860Z,1015.53
2018-09-13T03:34:00.837Z,1015.53
2018-09-13T03:35:00.804Z,1015.52
2018-09-13T03:36:00.768Z,1015.53
2018-09-13T03:37:00.739Z,1015.53
2018-09-13T03:38:00.707Z,1015.52
2018-09-13T03:39:00.719Z,1015.52
2018-09-13T03:40:00.648Z,1015.55
2018-09-13T03:41:00.614Z,1015.57
2018-09-13T03:42:00.628Z,1015.54
2018-09-13T03:43:00.552Z,1015.53
2018-09-13T03:44:00.523Z,1015.60
2018-09-13T03:45:00.503Z,1015.63
2018-09-13T03:46:00.460Z,1015.61
2018-09-13T03:47:00.430Z,1015.58
2018-09-13T03:48:00.399Z,1015.65
2018-09-13T03:49:00.368Z,1015.63
2018-09-13T03:50:00.346Z,1015.60
2018-09-13T03:51:00.312Z,1015.63
2018-09-13T03:52:00.281Z,1015.57
2018-09-13T03:53:00.245Z,1015.61
2018-09-13T03:54:00.234Z,1015.61
2018-09-13T03:55:00.197Z,1015.60
2018-09-13T03:56:00.157Z,1015.56
2018-09-13T03:57:00.123Z,1015.55
2018-09-13T03:58:00.092Z,1015.55
2018-09-13T03:59:00.066Z,1015.52
2018-09-13T04:00:00.040Z,1015.56
2018-09-13T04:01:00.000Z,1015.52
2018-09-13T04:01:59.971Z,1015.52
2018-09-13T04:02:59.940Z,1015.53
2018-09-13T04:03:59.905Z,1015.55
2018-09-13T04:04:59.885Z,1015.53
2018-09-13T04:05:59.847Z,1015.54
2018-09-13T04:06:59.817Z,1015.55
2018-09-13T04:07:59.791Z,1015.54
2018-09-13T04:08:59.757Z,1015.56
2018-09-13T04:09:59.740Z,1015.55
2018-09-13T04:10:59.697Z,1015.54
2018-09-13T04:11:59.666Z,1015.56
2018-09-13T04:12:59.632Z,1015.56
2018-09-13T04:13:59.603Z,1015.60
2018-09-13T04:14:59.572Z,1015.55
2018-09-13T04:15:59.572Z,1015.59
2018-09-13T04:16:59.518Z,1015.57
2018-09-13T04:17:59.479Z,1015.59
2018-09-13T04:18:59.560Z,1015.61
2018-09-13T04:19:59.419Z,1015.59
2018-09-13T04:20:59.403Z,1015.57
2018-09-13T04:21:59.362Z,1015.56
2018-09-13T04:22:59.325Z,1015.55
2018-09-13T04:23:59.295Z,1015.58
2018-09-13T04:24:59.264Z,1015.53
2018-09-13T04:25:59.242Z,1015.53
2018-09-13T04:26:59.203Z,1015.49
2018-09-13T04:27:59.171Z,1015.47
2018-09-13T04:28:59.141Z,1015.47
2018-09-13T04:29:59.112Z,1015.50
2018-09-13T04:30:59.093Z,1015.49
2018-09-13T04:31:59.052Z,1015.53
2018-09-13T04:32:59.085Z,1015.48
2018-09-13T04:33:58.988Z,1015.51
2018-09-13T04:34:58.961Z,1015.48
2018-09-13T04:35:59.016Z,1015.50
2018-09-13T04:36:58.893Z,1015.50
2018-09-13T04:37:58.864Z,1015.50
2018-09-13T04:38:58.832Z,1015.50
2018-09-13T04:39:58.803Z,1015.51
2018-09-13T04:40:58.780Z,1015.48
2018-09-13T04:41:58.741Z,1015.47
2018-09-13T04:42:58.713Z,1015.50
2018-09-13T04:43:58.679Z,1015.49
2018-09-13T04:44:58.649Z,1015.48
2018-09-13T04:45:58.629Z,1015.46
2018-09-13T04:46:58.605Z,1015.47
2018-09-13T04:47:58.556Z,1015.42
2018-09-13T04:48:58.574Z,1015.46
2018-09-13T04:49:58.495Z,1015.45
2018-09-13T04:50:58.493Z,1015.47
2018-09-13T04:51:58.433Z,1015.50
2018-09-13T04:52:58.402Z,1015.50
2018-09-13T04:53:58.377Z,1015.55
2018-09-13T04:54:58.341Z,1015.50
2018-09-13T04:55:58.309Z,1015.49
2018-09-13T04:56:58.294Z,1015.52
2018-09-13T04:57:58.250Z,1015.51
2018-09-13T04:58:58.219Z,1015.49
2018-09-13T04:59:58.187Z,1015.56
2018-09-13T05:00:58.156Z,1015.51
2018-09-13T05:01:58.133Z,1015.49
2018-09-13T05:02:58.098Z,1015.48
2018-09-13T05:03:58.062Z,1015.52
2018-09-13T05:04:58.032Z,1015.51
2018-09-13T05:05:58.002Z,1015.44
2018-09-13T05:06:57.977Z,1015.46
2018-09-13T05:07:57.946Z,1015.47
2018-09-13T05:08:57.909Z,1015.45
2018-09-13T05:09:57.881Z,1015.42
2018-09-13T05:10:57.851Z,1015.44
2018-09-13T05:11:57.824Z,1015.45
2018-09-13T05:12:57.802Z,1015.43
2018-09-13T05:13:57.754Z,1015.45
2018-09-13T05:14:57.724Z,1015.45
2018-09-13T05:15:57.726Z,1015.41
2018-09-13T05:16:57.670Z,1015.41
2018-09-13T05:17:57.631Z,1015.44
2018-09-13T05:18:57.616Z,1015.47
2018-09-13T05:19:57.568Z,1015.41
2018-09-13T05:20:57.537Z,1015.43
2018-09-13T05:21:57.526Z,1015.46
2018-09-13T05:22:57.476Z,1015.45
2018-09-13T05:23:57.444Z,1015.46
2018-09-13T05:24:57.415Z,1015.48
2018-09-13T05:25:57.382Z,1015.50
2018-09-13T05:26:57.354Z,1015.50
2018-09-13T05:27:57.331Z,1015.54
2018-09-13T05:28:57.291Z,1015.55
2018-09-13T05:29:57.259Z,1015.57
2018-09-13T05:30:57.228Z,1015.52
2018-09-13T05:31:57.193Z,1015.52
2018-09-13T05:32:57.178Z,1015.49
2018-09-13T05:33:57.135Z,1015.58
2018-09-13T05:34:57.108Z,1015.55
2018-09-13T05:35:57.079Z,1015.58
2018-09-13T05:36:57.047Z,1015.58
2018-09-13T05:37:57.023Z,1015.55
2018-09-13T05:38:57.028Z,1015.56
2018-09-13T05:39:56.947Z,1015.55
2018-09-13T05:40:56.919Z,1015.57
2018-09-13T05:41:56.891Z,1015.57
2018-09-13T05:42:56.868Z,1015.53
2018-09-13T05:43:56.825Z,1015.52
2018-09-13T05:44:56.794Z,1015.56
2018-09-13T05:45:56.771Z,1015.59
2018-09-13T05:46:56.732Z,1015.61
2018-09-13T05:47:56.712Z,1015.57
2018-09-13T05:48:56.673Z,1015.54
2018-09-13T05:49:56.642Z,1015.56
2018-09-13T05:50:56.608Z,1015.60
2018-09-13T05:51:56.577Z,1015.59
2018-09-13T05:52:56.558Z,1015.60
2018-09-13T05:53:56.516Z,1015.56
2018-09-13T05:54:56.482Z,1015.59
2018-09-13T05:55:56.453Z,1015.56
2018-09-13T05:56:56.422Z,1015.57
2018-09-13T05:57:56.399Z,1015.59
2018-09-13T05:58:56.360Z,1015.58
2018-09-13T05:59:56.330Z,1015.57
2018-09-13T06:00:56.301Z,1015.57
2018-09-13T06:01:56.276Z,1015.54
2018-09-13T06:02:56.253Z,1015.56
2018-09-13T06:03:56.207Z,1015.59
2018-09-13T06:04:56.175Z,1015.61
2018-09-13T06:05:56.147Z,1015.64
2018-09-13T06:06:56.115Z,1015.64
2018-09-13T06:07:56.096Z,1015.62
2018-09-13T06:08:56.061Z,1015.67
2018-09-13T06:09:56.024Z,1015.66
2018-09-13T06:10:55.993Z,1015.65
2018-09-13T06:11:55.962Z,1015.63
2018-09-13T06:12:55.939Z,1015.66
2018-09-13T06:13:55.909Z,1015.62
2018-09-13T06:14:55.869Z,1015.64
2018-09-13T06:15:55.837Z,1015.66
2018-09-13T06:16:55.807Z,1015.66
2018-09-13T06:17:55.777Z,1015.67
2018-09-13T06:18:55.754Z,1015.69
2018-09-13T06:19:55.718Z,1015.68
2018-09-13T06:20:55.684Z,1015.70
2018-09-13T06:21:55.655Z,1015.68
2018-09-13T06:22:55.640Z,1015.62
2018-09-13T06:23:55.603Z,1015.68
2018-09-13T06:24:55.562Z,1015.68
2018-09-13T06:25:55.531Z,1015.65
2018-09-13T06:26:55.510Z,1015.64
2018-09-13T06:27:55.471Z,1015.65
2018-09-13T06:28:55.449Z,1015.68
2018-09-13T06:29:55.413Z,1015.66
2018-09-13T06:30:55.380Z,1015.65
2018-09-13T06:31:55.353Z,1015.62
2018-09-13T06:32:55.318Z,1015.64
2018-09-13T06:33:55.299Z,1015.64
2018-09-13T06:34:55.264Z,1015.64
2018-09-13T06:35:55.257Z,1015.62
2018-09-13T06:36:56.300Z,1015.64
2018-09-13T06:37:55.165Z,1015.66
2018-09-13T06:38:55.159Z,1015.68
2018-09-13T06:39:55.113Z,1015.59
2018-09-13T06:40:55.070Z,1015.67
2018-09-13T06:41:55.083Z,1015.68
2018-09-13T06:42:55.018Z,1015.66
2018-09-13T06:43:55.005Z,1015.68
2018-09-13T06:44:54.961Z,1015.70
2018-09-13T06:45:54.920Z,1015.74
2018-09-13T06:46:54.891Z,1015.68
2018-09-13T06:47:54.865Z,1015.69
2018-09-13T06:48:54.829Z,1015.69
2018-09-13T06:49:54.813Z,1015.65
2018-09-13T06:50:54.771Z,1015.69
2018-09-13T06:51:54.748Z,1015.62
2018-09-13T06:52:54.709Z,1015.67
2018-09-13T06:53:54.683Z,1015.63
2018-09-13T06:54:54.663Z,1015.65
2018-09-13T06:55:54.620Z,1015.67
2018-09-13T06:56:54.591Z,1015.58
2018-09-13T06:57:54.559Z,1015.64
2018-09-13T06:58:54.532Z,1015.61
2018-09-13T06:59:54.508Z,1015.61
2018-09-13T07:00:54.471Z,1015.64
2018-09-13T07:01:54.441Z,1015.63
2018-09-13T07:02:54.410Z,1015.62
2018-09-13T07:03:54.378Z,1015.62
2018-09-13T07:04:54.369Z,1015.64
2018-09-13T07:05:54.320Z,1015.59
2018-09-13T07:06:54.291Z,1015.59
2018-09-13T07:07:54.260Z,1015.58
2018-09-13T07:08:54.246Z,1015.58
2018-09-13T07:09:54.199Z,1015.59
2018-09-13T07:10:54.178Z,1015.59
2018-09-13T07:11:54.138Z,1015.59
2018-09-13T07:12:54.113Z,1015.61
2018-09-13T07:13:54.081Z,1015.65
2018-09-13T07:14:54.056Z,1015.65
2018-09-13T07:15:54.036Z,1015.62
2018-09-13T07:16:53.986Z,1015.60
2018-09-13T07:17:53.961Z,1015.61
2018-09-13T07:18:53.930Z,1015.59
2018-09-13T07:19:53.900Z,1015.62
2018-09-13T07:20:53.881Z,1015.61
2018-09-13T07:21:53.840Z,1015.60
2018-09-13T07:22:53.814Z,1015.62
2018-09-13T07:23:53.786Z,1015.61
2018-09-13T07:24:53.754Z,1015.60
2018-09-13T07:25:53.734Z,1015.63
2018-09-13T07:26:53.694Z,1015.61
2018-09-13T07:27:53.664Z,1015.63
2018-09-13T07:28:53.643Z,1015.63
2018-09-13T07:29:53.608Z,1015.61
2018-09-13T07:30:53.650Z,1015.62
2018-09-13T07:31:53.543Z,1015.55
2018-09-13T07:32:53.510Z,1015.59
2018-09-13T07:33:53.481Z,1015.61
2018-09-13T07:34:53.456Z,1015.58
2018-09-13T07:35:53.434Z,1015.63
2018-09-13T07:36:53.462Z,1015.63
2018-09-13T07:37:53.366Z,1015.62
2018-09-13T07:38:53.344Z,1015.64
2018-09-13T07:39:53.315Z,1015.60
2018-09-13T07:40:53.300Z,1015.64
2018-09-13T07:41:53.253Z,1015.69
2018-09-13T07:42:53.272Z,1015.65
2018-09-13T07:43:53.192Z,1015.66
2018-09-13T07:44:53.157Z,1015.66
2018-09-13T07:45:53.134Z,1015.68
2018-09-13T07:46:53.119Z,1015.64
2018-09-13T07:47:53.073Z,1015.71
2018-09-13T07:48:53.111Z,1015.68
2018-09-13T07:49:53.163Z,1015.69
2018-09-13T07:50:52.983Z,1015.75
2018-09-13T07:51:52.965Z,1015.76
2018-09-13T07:52:52.925Z,1015.79
2018-09-13T07:53:52.899Z,1015.80
2018-09-13T07:54:52.867Z,1015.78
2018-09-13T07:55:52.880Z,1015.80
2018-09-13T07:56:52.820Z,1015.84
2018-09-13T07:57:52.788Z,1015.86
2018-09-13T07:58:52.752Z,1015.86
2018-09-13T07:59:52.722Z,1015.89
2018-09-13T08:00:52.693Z,1015.89
2018-09-13T08:01:52.670Z,1015.87
2018-09-13T08:02:52.653Z,1015.92
2018-09-13T08:03:52.612Z,1015.97
2018-09-13T08:04:52.578Z,1015.92
2018-09-13T08:05:52.545Z,1015.90
2018-09-13T08:06:52.527Z,1015.90
2018-09-13T08:07:52.487Z,1015.85
2018-09-13T08:08:52.458Z,1015.90
2018-09-13T08:09:52.430Z,1015.93
2018-09-13T08:10:52.401Z,1015.93
2018-09-13T08:11:52.416Z,1015.88
2018-09-13T08:12:52.346Z,1015.92
2018-09-13T08:13:52.320Z,1015.92
2018-09-13T08:14:52.284Z,1015.93
2018-09-13T08:15:52.313Z,1015.95
2018-09-13T08:16:52.225Z,1015.94
2018-09-13T08:17:52.208Z,1015.97
2018-09-13T08:18:52.173Z,1015.97
2018-09-13T08:19:52.144Z,1015.93
2018-09-13T08:20:52.115Z,1015.97
2018-09-13T08:21:52.091Z,1015.99
2018-09-13T08:22:52.069Z,1015.97
2018-09-13T08:23:52.029Z,1015.95
2018-09-13T08:24:51.998Z,1015.96
2018-09-13T08:25:51.972Z,1016.01
2018-09-13T08:26:51.945Z,1016.00
2018-09-13T08:27:51.919Z,1016.04
2018-09-13T08:28:51.884Z,1016.02
2018-09-13T08:29:51.855Z,1016.05
2018-09-13T08:30:51.827Z,1016.07
2018-09-13T08:31:51.800Z,1016.09
2018-09-13T08:32:51.776Z,1016.12
2018-09-13T08:33:51.742Z,1016.13
2018-09-13T08:34:51.842Z,1016.16
2018-09-13T08:35:51.684Z,1016.15
2018-09-13T08:36:51.707Z,1016.14
2018-09-13T08:37:51.638Z,1016.13
2018-09-13T08:38:51.600Z,1016.12
2018-09-13T08:39:51.623Z,1016.18
2018-09-13T08:40:51.542Z,1016.11
2018-09-13T08:41:51.514Z,1016.11
2018-09-13T08:42:51.493Z,1016.10
2018-09-13T08:43:51.455Z,1016.10
2018-09-13T08:44:51.782Z,1016.13
2018-09-13T08:45:51.399Z,1016.17
2018-09-13T08:46:51.390Z,1016.18
2018-09-13T08:47:51.364Z,1016.23
2018-09-13T08:48:51.313Z,1016.18
2018-09-13T08:49:51.292Z,1016.25
2018-09-13T08:50:51.259Z,1016.23
2018-09-13T08:51:51.230Z,1016.29
2018-09-13T08:52:51.226Z,1016.29
2018-09-13T08:53:51.171Z,1016.27
2018-09-13T08:54:51.145Z,1016.30
2018-09-13T08:55:51.116Z,1016.27
2018-09-13T08:56:51.088Z,1016.31
2018-09-13T08:57:51.120Z,1016.29
2018-09-13T08:58:51.033Z,1016.32
2018-09-13T08:59:51.004Z,1016.29
2018-09-13T09:00:51.020Z,1016.26
2018-09-13T09:01:50.951Z,1016.27
2018-09-13T09:02:50.936Z,1016.25
2018-09-13T09:03:50.891Z,1016.24
2018-09-13T09:04:50.865Z,1016.19
2018-09-13T09:05:50.839Z,1016.15
2018-09-13T09:06:50.812Z,1016.06
2018-09-13T09:07:50.780Z,1015.98
2018-09-13T09:08:50.761Z,1016.00
2018-09-13T09:09:50.728Z,1015.98
2018-09-13T09:10:50.700Z,1015.97
2018-09-13T09:11:50.719Z,1015.99
2018-09-13T09:12:50.639Z,1016.04
2018-09-13T09:13:50.622Z,1016.01
2018-09-13T09:14:50.589Z,1016.02
2018-09-13T09:15:50.561Z,1016.05
2018-09-13T09:16:50.529Z,1016.04
2018-09-13T09:17:50.509Z,1016.06
2018-09-13T09:18:50.481Z,1016.05
2018-09-13T09:19:50.446Z,1016.06
2018-09-13T09:20:50.418Z,1016.08
2018-09-13T09:21:50.391Z,1016.08
2018-09-13T09:22:50.362Z,1016.03
2018-09-13T09:23:50.342Z,1016.07
2018-09-13T09:24:50.317Z,1016.02
2018-09-13T09:25:50.281Z,1016.01
2018-09-13T09:26:50.254Z,1016.05
2018-09-13T09:27:50.229Z,1016.03
2018-09-13T09:28:50.218Z,1016.01
2018-09-13T09:29:50.240Z,1016.02
2018-09-13T09:30:50.147Z,1016.00
2018-09-13T09:31:50.120Z,1016.03
2018-09-13T09:32:50.102Z,1015.97
2018-09-13T09:33:50.063Z,1015.98
2018-09-13T09:34:50.133Z,1015.96
2018-09-13T09:35:50.008Z,1015.97
2018-09-13T09:36:49.980Z,1016.00
2018-09-13T09:37:49.957Z,1015.97
2018-09-13T09:38:49.928Z,1015.95
2018-09-13T09:39:49.927Z,1015.99
2018-09-13T09:40:49.874Z,1015.96
2018-09-13T09:41:49.845Z,1015.95
2018-09-13T09:42:49.817Z,1015.94
2018-09-13T09:43:49.791Z,1015.96
2018-09-13T09:44:49.777Z,1015.93
2018-09-13T09:45:49.737Z,1015.92
2018-09-13T09:46:49.707Z,1015.94
2018-09-13T09:47:49.678Z,1015.98
2018-09-13T09:48:49.658Z,1015.96
2018-09-13T09:49:49.636Z,1015.92
2018-09-13T09:50:49.598Z,1015.94
2018-09-13T09:51:49.621Z,1015.94
2018-09-13T09:52:49.544Z,1015.96
2018-09-13T09:53:49.519Z,1015.96
2018-09-13T09:54:49.496Z,1016.03
2018-09-13T09:55:49.460Z,1016.01
2018-09-13T09:56:49.440Z,1016.01
2018-09-13T09:57:49.443Z,1016.05
2018-09-13T09:58:49.380Z,1016.04
2018-09-13T09:59:49.378Z,1016.06
2018-09-13T10:00:49.324Z,1016.04
2018-09-13T10:01:49.298Z,1016.06
2018-09-13T10:02:49.271Z,1016.12
2018-09-13T10:03:49.246Z,1016.12
2018-09-13T10:04:49.222Z,1016.11
2018-09-13T10:05:49.204Z,1016.11
2018-09-13T10:06:49.162Z,1016.10
2018-09-13T10:07:49.135Z,1016.11
2018-09-13T10:08:49.116Z,1016.03
2018-09-13T10:09:49.124Z,1016.07
2018-09-13T10:10:49.063Z,1016.01
2018-09-13T10:11:49.027Z,1016.06
2018-09-13T10:12:48.999Z,1016.08
2018-09-13T10:13:48.973Z,1016.08
2018-09-13T10:14:48.947Z,1016.06
2018-09-13T10:15:48.935Z,1016.06
2018-09-13T10:16:48.894Z,1016.07
2018-09-13T10:17:48.865Z,1016.07
2018-09-13T10:18:48.840Z,1016.06
2018-09-13T10:19:48.816Z,1016.05
2018-09-13T10:20:48.794Z,1015.99
2018-09-13T10:21:48.762Z,1016.01
2018-09-13T10:22:48.795Z,1016.02
2018-09-13T10:23:48.706Z,1016.01
2018-09-13T10:24:48.681Z,1016.01
2018-09-13T10:25:48.662Z,1016.03
2018-09-13T10:26:48.631Z,1016.05
2018-09-13T10:27:48.609Z,1016.04
2018-09-13T10:28:48.582Z,1015.99
2018-09-13T10:29:48.583Z,1015.98
2018-09-13T10:30:48.528Z,1015.99
2018-09-13T10:31:48.492Z,1015.94
2018-09-13T10:32:48.465Z,1015.96
2018-09-13T10:33:48.445Z,1015.97
2018-09-13T10:34:48.415Z,1015.96
2018-09-13T10:35:48.414Z,1015.96
2018-09-13T10:36:48.364Z,1015.97
2018-09-13T10:37:48.337Z,1015.99
2018-09-13T10:38:48.306Z,1015.96
2018-09-13T10:39:48.280Z,1015.97
2018-09-13T10:40:48.327Z,1015.96
2018-09-13T10:41:48.239Z,1015.96
2018-09-13T10:42:48.203Z,1015.98
2018-09-13T10:43:48.175Z,1015.99
2018-09-13T10:44:48.154Z,1015.95
2018-09-13T10:45:48.138Z,1015.94
2018-09-13T10:46:48.104Z,1015.93
2018-09-13T10:47:56.485Z,1015.90
2018-09-13T10:48:48.042Z,1015.89
2018-09-13T10:49:48.023Z,1015.82
2018-09-13T10:50:47.988Z,1015.82
2018-09-13T10:51:47.972Z,1015.84
2018-09-13T10:52:47.939Z,1015.85
2018-09-13T10:53:47.913Z,1015.83
2018-09-13T10:54:47.895Z,1015.87
2018-09-13T10:55:47.901Z,1015.84
2018-09-13T10:56:47.842Z,1015.83
2018-09-13T10:57:47.807Z,1015.79
2018-09-13T10:58:47.788Z,1015.79
2018-09-13T10:59:47.756Z,1015.75
2018-09-13T11:00:47.728Z,1015.76
2018-09-13T11:01:47.736Z,1015.77
2018-09-13T11:02:47.674Z,1015.76
2018-09-13T11:03:47.649Z,1015.74
2018-09-13T11:04:47.621Z,1015.76
2018-09-13T11:05:47.651Z,1015.74
2018-09-13T11:06:47.585Z,1015.73
2018-09-13T11:07:47.543Z,1015.77
2018-09-13T11:08:47.522Z,1015.78
2018-09-13T11:09:47.499Z,1015.78
2018-09-13T11:10:47.564Z,1015.79
2018-09-13T11:11:47.448Z,1015.77
2018-09-13T11:12:47.411Z,1015.82
2018-09-13T11:13:47.391Z,1015.81
2018-09-13T11:14:47.362Z,1015.75
2018-09-13T11:15:47.335Z,1015.73
2018-09-13T11:16:47.326Z,1015.76
2018-09-13T11:17:47.282Z,1015.76
2018-09-13T11:18:47.258Z,1015.81
2018-09-13T11:19:47.238Z,1015.81
2018-09-13T11:20:47.208Z,1015.79
2018-09-13T11:21:47.200Z,1015.78
2018-09-13T11:22:47.164Z,1015.79
2018-09-13T11:23:47.126Z,1015.77
2018-09-13T11:24:47.103Z,1015.75
2018-09-13T11:25:47.071Z,1015.75
2018-09-13T11:26:47.062Z,1015.77
2018-09-13T11:27:47.033Z,1015.74
2018-09-13T11:28:47.006Z,1015.78
2018-09-13T11:29:46.970Z,1015.75
2018-09-13T11:30:46.949Z,1015.75
2018-09-13T11:31:46.921Z,1015.78
2018-09-13T11:32:47.082Z,1015.77
2018-09-13T11:33:46.866Z,1015.75
2018-09-13T11:34:46.842Z,1015.77
2018-09-13T11:35:46.816Z,1015.75
2018-09-13T11:36:46.787Z,1015.74
2018-09-13T11:37:46.770Z,1015.73
2018-09-13T11:38:46.741Z,1015.71
2018-09-13T11:39:46.719Z,1015.71
2018-09-13T11:40:46.955Z,1015.71
2018-09-13T11:41:46.659Z,1015.69
2018-09-13T11:42:46.644Z,1015.65
2018-09-13T11:43:46.608Z,1015.67
2018-09-13T11:44:46.584Z,1015.64
2018-09-13T11:45:46.558Z,1015.64
2018-09-13T11:46:46.534Z,1015.64
2018-09-13T11:47:46.525Z,1015.61
2018-09-13T11:48:46.478Z,1015.61
2018-09-13T11:49:46.461Z,1015.61
2018-09-13T11:50:46.427Z,1015.60
2018-09-13T11:51:46.403Z,1015.60
2018-09-13T11:52:46.374Z,1015.62
2018-09-13T11:53:46.356Z,1015.60
2018-09-13T11:54:46.338Z,1015.61
2018-09-13T11:55:46.295Z,1015.59
2018-09-13T11:56:46.280Z,1015.54
2018-09-13T11:57:46.246Z,1015.55
2018-09-13T11:58:46.230Z,1015.53
2018-09-13T11:59:46.188Z,1015.49
2018-09-13T12:00:46.164Z,1015.52
2018-09-13T12:01:46.140Z,1015.50
2018-09-13T12:02:46.113Z,1015.45
2018-09-13T12:03:46.099Z,1015.52
2018-09-13T12:04:46.060Z,1015.51